Portada
METAR-TAF:

METAR-TAF

Aeropuertos :

Colmenar Viejo, España

latitud: 40-39N, longitud: 003-44W, altitud: -999 m

Observación

El informe se hizo hace 29 minutos, a las 12:00 UTC
Viento 8 kt del oeste
Temperatura 28°C
Humedad 30%
Presión 1019 hPa
Visibilidad 10 km o más
Nubes dispersas a una altura de 6000 ft

METAR: LECV 041200Z 26008KT 9999 SCT060 28/09 Q1019

Hora: 14:29 (12:29 UTC)

Pronóstico

El informe se hizo hace 1 hora y 29 minutos, a las 11:00 UTC
Pronóstico válido del 04 a las 12 UTC al 05 a las 12 UTC
Viento 5 kt con dirección variable
Visibilidad 10 km o más
Escasas nubes a una altura de 5000 ft
Temporalmente
del 04 a las 15 UTC al 04 a las 19 UTC
Viento 12 kt del noroeste
Evolucionando progresivamente
del 05 a las 09 UTC al 05 a las 12 UTC
Viento 10 kt del sur-suroeste

TAF: LECV 041100Z 0412/0512 VRB05KT 9999 FEW050 TX28/0415Z TN14/0505Z TEMPO 0415/0419 31012KT BECMG 0509/0512 21010KT

Observaciones y pronósticos meteorológicos de más de 4000 aeropuertos (mensajes METAR y TAF).

Los puntos amarillos y rojos representan las estaciones disponibles.

Ponga el ratón en el punto deseado para ver el nombre de la estación.

Haga clic para ver las observaciones y los pronósticos meteorológicos.

Para cambiar el mapa : haga clic en los botones verdes con una cruz de color negro para hacer un zoom, en el botón verde con un guión para alejar o en las flechas verdes para mapas adyacentes.


METAR-TAF: